sensor_id;sensor_type;location;lat;lon;timestamp;pressure;altitude;pressure_sealevel;temperature;humidity
73692;BME280;61996;49.910;35.562;2022-09-04T00:03:13;99818.53;;;18.83;46.54
73692;BME280;61996;49.910;35.562;2022-09-04T00:06:24;99824.97;;;18.80;46.36
73692;BME280;61996;49.910;35.562;2022-09-04T00:09:32;99825.91;;;18.70;46.68
73692;BME280;61996;49.910;35.562;2022-09-04T00:12:43;99824.41;;;18.77;46.36
73692;BME280;61996;49.910;35.562;2022-09-04T00:15:48;99825.56;;;18.63;46.50
73692;BME280;61996;49.910;35.562;2022-09-04T00:18:54;99829.47;;;18.80;46.17
73692;BME280;61996;49.910;35.562;2022-09-04T00:21:59;99824.56;;;19.25;45.13
73692;BME280;61996;49.910;35.562;2022-09-04T00:25:05;99834.84;;;18.89;46.01
73692;BME280;61996;49.910;35.562;2022-09-04T00:28:11;99834.06;;;19.08;45.41
73692;BME280;61996;49.910;35.562;2022-09-04T00:31:21;99830.31;;;18.80;46.30
73692;BME280;61996;49.910;35.562;2022-09-04T00:34:32;99832.06;;;18.70;46.44
73692;BME280;61996;49.910;35.562;2022-09-04T00:37:40;99836.16;;;18.74;46.80
73692;BME280;61996;49.910;35.562;2022-09-04T00:40:46;99845.59;;;18.57;47.07
73692;BME280;61996;49.910;35.562;2022-09-04T00:43:59;99847.28;;;18.58;47.17
73692;BME280;61996;49.910;35.562;2022-09-04T00:47:07;99848.69;;;18.62;47.24
73692;BME280;61996;49.910;35.562;2022-09-04T00:50:33;99850.78;;;18.80;46.44
73692;BME280;61996;49.910;35.562;2022-09-04T00:53:44;99847.22;;;18.70;46.66
73692;BME280;61996;49.910;35.562;2022-09-04T00:57:07;99850.78;;;18.59;46.95
73692;BME280;61996;49.910;35.562;2022-09-04T01:00:21;99838.78;;;18.95;46.04
73692;BME280;61996;49.910;35.562;2022-09-04T01:06:52;99847.09;;;18.71;46.85
73692;BME280;61996;49.910;35.562;2022-09-04T01:10:10;99859.25;;;18.64;46.76
73692;BME280;61996;49.910;35.562;2022-09-04T01:13:17;99844.34;;;18.61;46.76
73692;BME280;61996;49.910;35.562;2022-09-04T01:16:23;99840.28;;;18.78;46.38
73692;BME280;61996;49.910;35.562;2022-09-04T01:19:32;99838.34;;;18.90;46.22
73692;BME280;61996;49.910;35.562;2022-09-04T01:22:46;99833.38;;;18.76;46.59
73692;BME280;61996;49.910;35.562;2022-09-04T01:25:57;99833.97;;;18.79;46.50
73692;BME280;61996;49.910;35.562;2022-09-04T01:29:03;99831.53;;;18.76;46.68
73692;BME280;61996;49.910;35.562;2022-09-04T01:32:15;99819.16;;;18.96;46.00
73692;BME280;61996;49.910;35.562;2022-09-04T01:35:25;99817.91;;;19.00;45.82
73692;BME280;61996;49.910;35.562;2022-09-04T01:38:32;99807.19;;;18.81;46.39
73692;BME280;61996;49.910;35.562;2022-09-04T01:41:38;99817.16;;;18.58;47.09
73692;BME280;61996;49.910;35.562;2022-09-04T01:44:44;99815.84;;;18.73;46.60
73692;BME280;61996;49.910;35.562;2022-09-04T01:47:48;99816.41;;;18.77;46.43
73692;BME280;61996;49.910;35.562;2022-09-04T01:50:53;99816.03;;;18.60;46.97
73692;BME280;61996;49.910;35.562;2022-09-04T01:54:02;99812.88;;;18.46;47.50
73692;BME280;61996;49.910;35.562;2022-09-04T01:57:09;99813.03;;;18.54;47.18
73692;BME280;61996;49.910;35.562;2022-09-04T02:00:16;99811.88;;;18.68;46.70
73692;BME280;61996;49.910;35.562;2022-09-04T02:03:25;99816.03;;;18.60;46.99
73692;BME280;61996;49.910;35.562;2022-09-04T02:06:34;99810.97;;;18.57;47.18
73692;BME280;61996;49.910;35.562;2022-09-04T02:09:42;99813.19;;;18.73;46.90
73692;BME280;61996;49.910;35.562;2022-09-04T02:12:52;99806.59;;;18.56;47.29
73692;BME280;61996;49.910;35.562;2022-09-04T02:16:02;99803.56;;;18.61;47.18
73692;BME280;61996;49.910;35.562;2022-09-04T02:19:10;99807.19;;;18.60;47.19
73692;BME280;61996;49.910;35.562;2022-09-04T02:22:22;99805.56;;;18.69;46.91
73692;BME280;61996;49.910;35.562;2022-09-04T02:25:27;99795.22;;;18.75;46.74
73692;BME280;61996;49.910;35.562;2022-09-04T02:28:36;99799.19;;;18.81;46.48
73692;BME280;61996;49.910;35.562;2022-09-04T02:31:46;99811.13;;;18.35;47.71
73692;BME280;61996;49.910;35.562;2022-09-04T02:34:53;99805.72;;;18.46;47.56
73692;BME280;61996;49.910;35.562;2022-09-04T02:38:02;99814.72;;;18.55;47.36
73692;BME280;61996;49.910;35.562;2022-09-04T02:41:10;99802.78;;;18.49;47.38
73692;BME280;61996;49.910;35.562;2022-09-04T02:44:24;99805.69;;;18.37;47.75
73692;BME280;61996;49.910;35.562;2022-09-04T02:47:31;99807.38;;;18.38;47.89
73692;BME280;61996;49.910;35.562;2022-09-04T02:50:43;99813.38;;;18.60;47.21
73692;BME280;61996;49.910;35.562;2022-09-04T02:53:51;99808.88;;;18.61;47.06
73692;BME280;61996;49.910;35.562;2022-09-04T02:56:59;99816.16;;;18.59;47.47
73692;BME280;61996;49.910;35.562;2022-09-04T03:00:11;99811.75;;;18.48;47.77
73692;BME280;61996;49.910;35.562;2022-09-04T03:03:23;99806.69;;;18.45;47.58
73692;BME280;61996;49.910;35.562;2022-09-04T03:06:38;99809.59;;;18.42;47.73
73692;BME280;61996;49.910;35.562;2022-09-04T03:09:43;99821.34;;;18.30;48.23
73692;BME280;61996;49.910;35.562;2022-09-04T03:12:49;99814.47;;;18.58;47.27
73692;BME280;61996;49.910;35.562;2022-09-04T03:15:56;99817.75;;;18.41;47.82
73692;BME280;61996;49.910;35.562;2022-09-04T03:19:06;99807.34;;;18.58;47.39
73692;BME280;61996;49.910;35.562;2022-09-04T03:22:17;99824.59;;;18.64;47.34
73692;BME280;61996;49.910;35.562;2022-09-04T03:25:35;99824.56;;;18.33;48.06
73692;BME280;61996;49.910;35.562;2022-09-04T03:28:48;99810.59;;;18.20;48.33
73692;BME280;61996;49.910;35.562;2022-09-04T03:31:58;99813.31;;;18.51;47.54
73692;BME280;61996;49.910;35.562;2022-09-04T03:35:18;99818.16;;;18.36;47.89
73692;BME280;61996;49.910;35.562;2022-09-04T03:38:25;99818.22;;;18.25;48.41
73692;BME280;61996;49.910;35.562;2022-09-04T03:41:32;99824.28;;;18.57;47.33
73692;BME280;61996;49.910;35.562;2022-09-04T03:44:39;99815.38;;;18.68;47.30
73692;BME280;61996;49.910;35.562;2022-09-04T03:47:49;99824.72;;;18.62;47.32
73692;BME280;61996;49.910;35.562;2022-09-04T03:51:00;99831.38;;;18.47;47.74
73692;BME280;61996;49.910;35.562;2022-09-04T03:54:10;99830.59;;;18.35;48.04
73692;BME280;61996;49.910;35.562;2022-09-04T03:57:25;99825.53;;;18.32;48.06
73692;BME280;61996;49.910;35.562;2022-09-04T04:00:33;99830.41;;;18.27;48.14
73692;BME280;61996;49.910;35.562;2022-09-04T04:03:49;99824.31;;;18.37;48.02
73692;BME280;61996;49.910;35.562;2022-09-04T04:06:57;99819.69;;;18.39;48.09
73692;BME280;61996;49.910;35.562;2022-09-04T04:10:12;99820.84;;;18.46;47.64
73692;BME280;61996;49.910;35.562;2022-09-04T04:13:24;99824.31;;;18.37;48.11
73692;BME280;61996;49.910;35.562;2022-09-04T04:16:33;99832.97;;;18.29;48.06
73692;BME280;61996;49.910;35.562;2022-09-04T04:19:48;99821.41;;;18.49;47.73
73692;BME280;61996;49.910;35.562;2022-09-04T04:26:19;99834.31;;;18.44;47.77
73692;BME280;61996;49.910;35.562;2022-09-04T04:29:28;99831.66;;;18.44;47.90
73692;BME280;61996;49.910;35.562;2022-09-04T04:32:47;99831.19;;;18.39;48.28
73692;BME280;61996;49.910;35.562;2022-09-04T04:35:57;99836.78;;;18.36;48.01
73692;BME280;61996;49.910;35.562;2022-09-04T04:39:08;99832.34;;;18.46;47.84
73692;BME280;61996;49.910;35.562;2022-09-04T04:42:16;99829.84;;;18.24;48.33
73692;BME280;61996;49.910;35.562;2022-09-04T04:45:24;99823.84;;;18.52;47.74
73692;BME280;61996;49.910;35.562;2022-09-04T04:52:18;99828.78;;;18.57;47.67
73692;BME280;61996;49.910;35.562;2022-09-04T04:55:28;99833.91;;;18.49;47.76
73692;BME280;61996;49.910;35.562;2022-09-04T04:58:47;99834.63;;;18.51;47.78
73692;BME280;61996;49.910;35.562;2022-09-04T05:01:57;99825.38;;;18.76;47.09
73692;BME280;61996;49.910;35.562;2022-09-04T05:05:09;99836.94;;;18.65;47.31
73692;BME280;61996;49.910;35.562;2022-09-04T05:08:19;99842.88;;;18.48;47.58
73692;BME280;61996;49.910;35.562;2022-09-04T05:11:25;99829.19;;;18.62;47.38
73692;BME280;61996;49.910;35.562;2022-09-04T05:14:34;99834.03;;;18.47;47.60
73692;BME280;61996;49.910;35.562;2022-09-04T05:17:42;99836.31;;;18.52;47.33
73692;BME280;61996;49.910;35.562;2022-09-04T05:20:51;99839.38;;;18.47;47.40
73692;BME280;61996;49.910;35.562;2022-09-04T05:23:59;99840.72;;;18.42;47.62
73692;BME280;61996;49.910;35.562;2022-09-04T05:27:07;99836.44;;;18.50;47.30
73692;BME280;61996;49.910;35.562;2022-09-04T05:30:13;99832.81;;;18.51;47.51
73692;BME280;61996;49.910;35.562;2022-09-04T05:33:18;99840.81;;;18.72;46.92
73692;BME280;61996;49.910;35.562;2022-09-04T05:36:27;99828.22;;;18.63;46.94
73692;BME280;61996;49.910;35.562;2022-09-04T05:39:34;99840.28;;;18.57;47.06
73692;BME280;61996;49.910;35.562;2022-09-04T05:42:41;99834.88;;;18.69;47.08
73692;BME280;61996;49.910;35.562;2022-09-04T05:45:47;99837.41;;;18.70;46.86
73692;BME280;61996;49.910;35.562;2022-09-04T05:48:55;99846.75;;;18.65;47.32
73692;BME280;61996;49.910;35.562;2022-09-04T05:55:36;99843.63;;;18.80;46.48
73692;BME280;61996;49.910;35.562;2022-09-04T05:58:48;99850.25;;;18.86;46.25
73692;BME280;61996;49.910;35.562;2022-09-04T06:01:59;99860.09;;;18.95;46.09
73692;BME280;61996;49.910;35.562;2022-09-04T06:05:08;99858.78;;;18.59;46.86
73692;BME280;61996;49.910;35.562;2022-09-04T06:08:30;99857.00;;;18.90;45.99
73692;BME280;61996;49.910;35.562;2022-09-04T06:11:46;99853.78;;;18.96;46.06
73692;BME280;61996;49.910;35.562;2022-09-04T06:15:03;99842.88;;;18.99;45.98
73692;BME280;61996;49.910;35.562;2022-09-04T06:18:11;99834.75;;;19.10;45.88
73692;BME280;61996;49.910;35.562;2022-09-04T06:21:28;99848.16;;;19.20;47.75
73692;BME280;61996;49.910;35.562;2022-09-04T06:28:07;99851.94;;;19.27;47.16
73692;BME280;61996;49.910;35.562;2022-09-04T06:31:27;99862.78;;;19.45;46.51
73692;BME280;61996;49.910;35.562;2022-09-04T06:34:45;99869.50;;;19.30;46.73
73692;BME280;61996;49.910;35.562;2022-09-04T06:37:58;99865.25;;;19.58;45.91
73692;BME280;61996;49.910;35.562;2022-09-04T06:41:13;99872.22;;;19.49;45.77
73692;BME280;61996;49.910;35.562;2022-09-04T06:44:23;99886.88;;;19.64;44.99
73692;BME280;61996;49.910;35.562;2022-09-04T06:47:34;99879.16;;;19.71;45.20
73692;BME280;61996;49.910;35.562;2022-09-04T06:50:45;99877.47;;;19.80;45.07
73692;BME280;61996;49.910;35.562;2022-09-04T06:53:55;99884.50;;;19.81;44.75
73692;BME280;61996;49.910;35.562;2022-09-04T06:57:05;99883.94;;;19.77;45.03
73692;BME280;61996;49.910;35.562;2022-09-04T07:00:14;99876.34;;;19.73;45.21
73692;BME280;61996;49.910;35.562;2022-09-04T07:03:32;99890.81;;;19.80;44.66
73692;BME280;61996;49.910;35.562;2022-09-04T07:06:45;99891.06;;;19.67;44.95
73692;BME280;61996;49.910;35.562;2022-09-04T07:09:51;99889.41;;;19.66;45.18
73692;BME280;61996;49.910;35.562;2022-09-04T07:13:23;99890.00;;;19.89;44.57
73692;BME280;61996;49.910;35.562;2022-09-04T07:16:37;99882.44;;;20.04;44.18
73692;BME280;61996;49.910;35.562;2022-09-04T07:23:15;99875.94;;;20.06;44.42
73692;BME280;61996;49.910;35.562;2022-09-04T07:26:23;99868.91;;;20.15;44.31
73692;BME280;61996;49.910;35.562;2022-09-04T07:29:31;99876.09;;;20.14;44.75
73692;BME280;61996;49.910;35.562;2022-09-04T07:32:39;99884.38;;;20.31;44.19
73692;BME280;61996;49.910;35.562;2022-09-04T07:35:47;99883.78;;;20.37;44.06
73692;BME280;61996;49.910;35.562;2022-09-04T07:38:53;99881.44;;;20.05;44.63
73692;BME280;61996;49.910;35.562;2022-09-04T07:42:00;99893.34;;;20.30;45.38
73692;BME280;61996;49.910;35.562;2022-09-04T07:45:06;99890.44;;;20.52;44.26
73692;BME280;61996;49.910;35.562;2022-09-04T07:48:18;99891.66;;;20.29;45.40
73692;BME280;61996;49.910;35.562;2022-09-04T07:51:26;99892.50;;;20.58;45.75
73692;BME280;61996;49.910;35.562;2022-09-04T07:54:39;99892.78;;;20.65;45.45
73692;BME280;61996;49.910;35.562;2022-09-04T07:58:01;99894.91;;;20.61;45.21
73692;BME280;61996;49.910;35.562;2022-09-04T08:01:14;99891.63;;;20.77;44.58
73692;BME280;61996;49.910;35.562;2022-09-04T08:04:33;99895.97;;;20.78;44.06
73692;BME280;61996;49.910;35.562;2022-09-04T08:07:53;99901.19;;;20.79;43.44
73692;BME280;61996;49.910;35.562;2022-09-04T08:11:07;99904.19;;;20.57;43.61
73692;BME280;61996;49.910;35.562;2022-09-04T08:17:33;99903.63;;;20.53;42.70
73692;BME280;61996;49.910;35.562;2022-09-04T08:20:43;99910.19;;;20.78;42.39
73692;BME280;61996;49.910;35.562;2022-09-04T08:27:17;99912.56;;;20.82;41.89
73692;BME280;61996;49.910;35.562;2022-09-04T08:30:23;99913.69;;;20.89;42.07
73692;BME280;61996;49.910;35.562;2022-09-04T08:33:32;99911.38;;;21.03;41.88
73692;BME280;61996;49.910;35.562;2022-09-04T08:36:42;99911.53;;;21.02;41.56
73692;BME280;61996;49.910;35.562;2022-09-04T08:39:51;99899.53;;;21.06;41.55
73692;BME280;61996;49.910;35.562;2022-09-04T08:43:03;99911.44;;;20.94;41.69
73692;BME280;61996;49.910;35.562;2022-09-04T08:53:13;99904.41;;;20.83;40.95
73692;BME280;61996;49.910;35.562;2022-09-04T08:56:25;99908.22;;;20.80;40.92
73692;BME280;61996;49.910;35.562;2022-09-04T09:06:20;99900.53;;;21.05;40.92
73692;BME280;61996;49.910;35.562;2022-09-04T09:12:55;99894.72;;;20.82;40.60
73692;BME280;61996;49.910;35.562;2022-09-04T09:19:33;99897.59;;;21.08;41.62
73692;BME280;61996;49.910;35.562;2022-09-04T09:22:48;99910.53;;;21.03;40.43
73692;BME280;61996;49.910;35.562;2022-09-04T09:29:45;99920.06;;;21.15;40.53
73692;BME280;61996;49.910;35.562;2022-09-04T09:33:05;99911.63;;;21.10;40.26
73692;BME280;61996;49.910;35.562;2022-09-04T09:39:45;99906.81;;;21.23;39.57
73692;BME280;61996;49.910;35.562;2022-09-04T09:53:22;99910.06;;;21.17;39.23
73692;BME280;61996;49.910;35.562;2022-09-04T10:03:25;99912.06;;;21.05;39.96
73692;BME280;61996;49.910;35.562;2022-09-04T10:06:40;99928.44;;;21.40;39.07
73692;BME280;61996;49.910;35.562;2022-09-04T10:10:10;99912.22;;;21.41;39.12
73692;BME280;61996;49.910;35.562;2022-09-04T10:13:33;99915.38;;;21.37;39.34
73692;BME280;61996;49.910;35.562;2022-09-04T10:16:51;99924.53;;;21.24;39.16
73692;BME280;61996;49.910;35.562;2022-09-04T10:20:09;99921.16;;;21.32;38.88
73692;BME280;61996;49.910;35.562;2022-09-04T10:23:35;99918.63;;;21.21;38.87
73692;BME280;61996;49.910;35.562;2022-09-04T10:26:50;99923.13;;;21.20;38.26
73692;BME280;61996;49.910;35.562;2022-09-04T10:30:05;99923.97;;;21.30;38.90
73692;BME280;61996;49.910;35.562;2022-09-04T10:33:13;99923.00;;;21.22;38.77
73692;BME280;61996;49.910;35.562;2022-09-04T10:36:21;99928.78;;;21.17;38.44
73692;BME280;61996;49.910;35.562;2022-09-04T10:39:33;99928.75;;;21.37;38.90
73692;BME280;61996;49.910;35.562;2022-09-04T10:43:02;99928.63;;;21.28;39.05
73692;BME280;61996;49.910;35.562;2022-09-04T10:46:13;99922.06;;;21.68;39.07
73692;BME280;61996;49.910;35.562;2022-09-04T10:56:11;99920.44;;;21.85;38.79
73692;BME280;61996;49.910;35.562;2022-09-04T10:59:34;99924.25;;;21.82;38.58
73692;BME280;61996;49.910;35.562;2022-09-04T11:06:09;99907.09;;;21.75;37.86
73692;BME280;61996;49.910;35.562;2022-09-04T11:09:24;99913.41;;;21.84;37.89
73692;BME280;61996;49.910;35.562;2022-09-04T11:16:10;99930.84;;;21.88;38.35
73692;BME280;61996;49.910;35.562;2022-09-04T11:19:27;99930.06;;;21.78;39.16
73692;BME280;61996;49.910;35.562;2022-09-04T11:22:58;99931.91;;;21.77;39.06
73692;BME280;61996;49.910;35.562;2022-09-04T11:29:37;99928.03;;;22.25;39.30
73692;BME280;61996;49.910;35.562;2022-09-04T11:32:53;99923.09;;;22.03;39.99
73692;BME280;61996;49.910;35.562;2022-09-04T11:42:49;99922.00;;;22.41;38.99
73692;BME280;61996;49.910;35.562;2022-09-04T11:46:13;99914.53;;;22.53;38.18
73692;BME280;61996;49.910;35.562;2022-09-04T11:49:33;99906.09;;;22.65;37.79
73692;BME280;61996;49.910;35.562;2022-09-04T11:52:43;99906.00;;;22.75;37.47
73692;BME280;61996;49.910;35.562;2022-09-04T11:55:57;99896.69;;;22.87;37.12
73692;BME280;61996;49.910;35.562;2022-09-04T11:59:14;99889.38;;;22.71;36.70
73692;BME280;61996;49.910;35.562;2022-09-04T12:02:28;99893.66;;;22.82;36.74
73692;BME280;61996;49.910;35.562;2022-09-04T12:12:29;99888.59;;;23.05;36.93
73692;BME280;61996;49.910;35.562;2022-09-04T12:15:44;99897.81;;;23.03;37.02
73692;BME280;61996;49.910;35.562;2022-09-04T12:29:26;99887.50;;;23.16;36.08
73692;BME280;61996;49.910;35.562;2022-09-04T12:32:47;99882.97;;;23.16;36.10
73692;BME280;61996;49.910;35.562;2022-09-04T12:39:31;99883.78;;;23.09;35.64
73692;BME280;61996;49.910;35.562;2022-09-04T12:42:41;99878.94;;;23.20;35.07
73692;BME280;61996;49.910;35.562;2022-09-04T12:45:50;99883.28;;;23.13;35.35
73692;BME280;61996;49.910;35.562;2022-09-04T12:49:09;99885.53;;;23.34;34.55
73692;BME280;61996;49.910;35.562;2022-09-04T12:52:34;99879.09;;;23.11;34.33
73692;BME280;61996;49.910;35.562;2022-09-04T12:55:44;99872.50;;;23.05;35.33
73692;BME280;61996;49.910;35.562;2022-09-04T12:58:55;99867.09;;;23.31;34.62
73692;BME280;61996;49.910;35.562;2022-09-04T13:02:13;99870.06;;;23.20;34.75
73692;BME280;61996;49.910;35.562;2022-09-04T13:05:29;99872.63;;;23.30;34.81
73692;BME280;61996;49.910;35.562;2022-09-04T13:08:47;99871.94;;;22.93;34.39
73692;BME280;61996;49.910;35.562;2022-09-04T13:11:57;99876.13;;;22.88;34.63
73692;BME280;61996;49.910;35.562;2022-09-04T13:18:27;99870.63;;;23.32;34.38
73692;BME280;61996;49.910;35.562;2022-09-04T13:24:57;99866.25;;;23.31;34.48
73692;BME280;61996;49.910;35.562;2022-09-04T13:28:07;99859.03;;;23.31;34.13
73692;BME280;61996;49.910;35.562;2022-09-04T13:31:22;99869.63;;;23.41;33.54
73692;BME280;61996;49.910;35.562;2022-09-04T13:34:31;99871.66;;;23.39;34.02
73692;BME280;61996;49.910;35.562;2022-09-04T13:37:42;99883.25;;;23.47;33.75
73692;BME280;61996;49.910;35.562;2022-09-04T13:40:59;99878.72;;;23.56;33.58
73692;BME280;61996;49.910;35.562;2022-09-04T13:44:16;99880.41;;;23.57;33.97
73692;BME280;61996;49.910;35.562;2022-09-04T13:47:25;99881.28;;;23.58;33.84
73692;BME280;61996;49.910;35.562;2022-09-04T13:50:35;99885.16;;;23.63;33.59
73692;BME280;61996;49.910;35.562;2022-09-04T13:53:47;99884.94;;;23.57;33.51
73692;BME280;61996;49.910;35.562;2022-09-04T13:56:53;99897.88;;;23.53;33.76
73692;BME280;61996;49.910;35.562;2022-09-04T14:00:00;99893.00;;;23.57;34.07
73692;BME280;61996;49.910;35.562;2022-09-04T14:03:09;99908.72;;;23.43;34.13
73692;BME280;61996;49.910;35.562;2022-09-04T14:06:17;99900.53;;;23.45;33.59
73692;BME280;61996;49.910;35.562;2022-09-04T14:09:21;99903.31;;;23.35;33.48
73692;BME280;61996;49.910;35.562;2022-09-04T14:12:37;99905.66;;;23.30;34.13
73692;BME280;61996;49.910;35.562;2022-09-04T14:15:57;99912.22;;;23.36;33.98
73692;BME280;61996;49.910;35.562;2022-09-04T14:19:16;99904.16;;;23.36;34.46
73692;BME280;61996;49.910;35.562;2022-09-04T14:22:30;99908.69;;;23.35;34.92
73692;BME280;61996;49.910;35.562;2022-09-04T14:25:40;99905.53;;;23.40;35.14
73692;BME280;61996;49.910;35.562;2022-09-04T14:28:45;99906.53;;;23.39;35.47
73692;BME280;61996;49.910;35.562;2022-09-04T14:31:53;99908.25;;;23.48;35.34
73692;BME280;61996;49.910;35.562;2022-09-04T14:35:02;99914.28;;;23.50;35.46
73692;BME280;61996;49.910;35.562;2022-09-04T14:38:21;99913.31;;;23.51;36.06
73692;BME280;61996;49.910;35.562;2022-09-04T14:41:32;99910.91;;;23.40;36.74
73692;BME280;61996;49.910;35.562;2022-09-04T14:44:44;99912.09;;;23.45;36.73
73692;BME280;61996;49.910;35.562;2022-09-04T14:47:54;99913.41;;;23.41;37.16
73692;BME280;61996;49.910;35.562;2022-09-04T14:54:24;99916.59;;;23.37;36.92
73692;BME280;61996;49.910;35.562;2022-09-04T14:57:30;99912.38;;;23.34;37.66
73692;BME280;61996;49.910;35.562;2022-09-04T15:00:49;99922.06;;;23.27;37.09
73692;BME280;61996;49.910;35.562;2022-09-04T15:03:55;99920.72;;;23.23;36.88
73692;BME280;61996;49.910;35.562;2022-09-04T15:07:03;99927.88;;;23.14;38.53
73692;BME280;61996;49.910;35.562;2022-09-04T15:10:22;99928.78;;;22.97;36.85
73692;BME280;61996;49.910;35.562;2022-09-04T15:16:44;99929.44;;;22.91;39.82
73692;BME280;61996;49.910;35.562;2022-09-04T15:19:51;99930.09;;;22.93;38.73
73692;BME280;61996;49.910;35.562;2022-09-04T15:22:56;99925.28;;;22.79;39.77
73692;BME280;61996;49.910;35.562;2022-09-04T15:26:03;99923.56;;;22.69;38.46
73692;BME280;61996;49.910;35.562;2022-09-04T15:32:12;99926.63;;;22.57;39.69
73692;BME280;61996;49.910;35.562;2022-09-04T15:35:21;99929.41;;;22.47;39.37
73692;BME280;61996;49.910;35.562;2022-09-04T15:38:30;99922.78;;;22.33;39.97
73692;BME280;61996;49.910;35.562;2022-09-04T15:41:36;99916.19;;;22.10;39.26
73692;BME280;61996;49.910;35.562;2022-09-04T15:44:42;99921.53;;;22.10;40.43
73692;BME280;61996;49.910;35.562;2022-09-04T15:51:15;99931.75;;;21.97;40.96
73692;BME280;61996;49.910;35.562;2022-09-04T15:54:22;99932.31;;;22.00;41.07
73692;BME280;61996;49.910;35.562;2022-09-04T15:57:30;99932.78;;;21.68;41.39
73692;BME280;61996;49.910;35.562;2022-09-04T16:00:37;99927.06;;;21.63;41.91
73692;BME280;61996;49.910;35.562;2022-09-04T16:03:44;99940.84;;;15.96;57.14
73692;BME280;61996;49.910;35.562;2022-09-04T16:06:48;99946.44;;;15.31;58.24
73692;BME280;61996;49.910;35.562;2022-09-04T16:09:55;99954.69;;;15.01;60.90
73692;BME280;61996;49.910;35.562;2022-09-04T16:13:02;99955.44;;;14.77;62.57
73692;BME280;61996;49.910;35.562;2022-09-04T16:16:08;99956.28;;;14.38;63.75
73692;BME280;61996;49.910;35.562;2022-09-04T16:19:14;99957.28;;;14.10;62.41
73692;BME280;61996;49.910;35.562;2022-09-04T16:22:27;99961.38;;;14.02;67.77
73692;BME280;61996;49.910;35.562;2022-09-04T16:25:36;99961.81;;;14.08;65.12
73692;BME280;61996;49.910;35.562;2022-09-04T16:28:45;99963.94;;;13.89;64.09
73692;BME280;61996;49.910;35.562;2022-09-04T16:31:51;99961.56;;;13.71;63.96
73692;BME280;61996;49.910;35.562;2022-09-04T16:34:56;99967.09;;;13.81;63.39
73692;BME280;61996;49.910;35.562;2022-09-04T16:38:04;99976.13;;;13.50;65.18
73692;BME280;61996;49.910;35.562;2022-09-04T16:41:10;99962.00;;;13.23;68.02
73692;BME280;61996;49.910;35.562;2022-09-04T16:44:17;99965.16;;;13.13;66.92
73692;BME280;61996;49.910;35.562;2022-09-04T16:47:30;99982.78;;;12.99;68.93
73692;BME280;61996;49.910;35.562;2022-09-04T16:50:36;99980.19;;;12.69;71.83
73692;BME280;61996;49.910;35.562;2022-09-04T16:53:43;99975.16;;;12.50;73.17
73692;BME280;61996;49.910;35.562;2022-09-04T16:56:49;99974.88;;;12.54;72.63
73692;BME280;61996;49.910;35.562;2022-09-04T17:00:16;99974.88;;;12.54;73.65
73692;BME280;61996;49.910;35.562;2022-09-04T17:03:27;99984.84;;;12.49;73.35
73692;BME280;61996;49.910;35.562;2022-09-04T17:06:42;99970.81;;;18.14;51.62
73692;BME280;61996;49.910;35.562;2022-09-04T17:09:56;99971.88;;;19.17;49.08
73692;BME280;61996;49.910;35.562;2022-09-04T17:13:04;99984.00;;;19.31;47.89
73692;BME280;61996;49.910;35.562;2022-09-04T17:16:18;99978.59;;;19.42;47.23
73692;BME280;61996;49.910;35.562;2022-09-04T17:19:22;99989.28;;;19.52;46.92
73692;BME280;61996;49.910;35.562;2022-09-04T17:22:29;99985.03;;;19.40;46.98
73692;BME280;61996;49.910;35.562;2022-09-04T17:25:56;99985.59;;;19.34;46.77
73692;BME280;61996;49.910;35.562;2022-09-04T17:29:25;99986.13;;;19.28;46.87
73692;BME280;61996;49.910;35.562;2022-09-04T17:32:45;99993.66;;;19.23;47.12
73692;BME280;61996;49.910;35.562;2022-09-04T17:36:16;99994.38;;;19.25;46.98
73692;BME280;61996;49.910;35.562;2022-09-04T17:39:41;99994.69;;;19.31;46.68
73692;BME280;61996;49.910;35.562;2022-09-04T17:43:15;99995.53;;;19.32;46.55
73692;BME280;61996;49.910;35.562;2022-09-04T17:46:31;99996.34;;;19.23;46.75
73692;BME280;61996;49.910;35.562;2022-09-04T17:49:40;99992.25;;;19.49;45.99
73692;BME280;61996;49.910;35.562;2022-09-04T17:52:53;100009.84;;;19.31;46.65
73692;BME280;61996;49.910;35.562;2022-09-04T17:56:03;99998.47;;;19.59;46.30
73692;BME280;61996;49.910;35.562;2022-09-04T17:59:10;100004.56;;;19.40;46.13
73692;BME280;61996;49.910;35.562;2022-09-04T18:02:21;100007.41;;;19.49;45.53
73692;BME280;61996;49.910;35.562;2022-09-04T18:05:30;100010.63;;;19.52;45.64
73692;BME280;61996;49.910;35.562;2022-09-04T18:08:43;100014.56;;;19.48;45.48
73692;BME280;61996;49.910;35.562;2022-09-04T18:12:02;100011.22;;;19.25;45.69
73692;BME280;61996;49.910;35.562;2022-09-04T18:15:12;100018.00;;;19.39;45.31
73692;BME280;61996;49.910;35.562;2022-09-04T18:18:38;100005.66;;;19.38;46.44
73692;BME280;61996;49.910;35.562;2022-09-04T18:21:46;100015.88;;;19.33;45.45
73692;BME280;61996;49.910;35.562;2022-09-04T18:25:18;100013.44;;;19.20;46.20
73692;BME280;61996;49.910;35.562;2022-09-04T18:28:31;100015.97;;;19.22;45.93
73692;BME280;61996;49.910;35.562;2022-09-04T18:31:39;100012.81;;;19.07;46.38
73692;BME280;61996;49.910;35.562;2022-09-04T18:35:11;100005.47;;;18.99;46.31
73692;BME280;61996;49.910;35.562;2022-09-04T18:38:40;100006.81;;;19.14;46.38
73692;BME280;61996;49.910;35.562;2022-09-04T18:42:12;100005.78;;;19.27;46.04
73692;BME280;61996;49.910;35.562;2022-09-04T18:45:38;100015.75;;;19.34;45.82
73692;BME280;61996;49.910;35.562;2022-09-04T18:49:05;100010.13;;;19.07;45.84
73692;BME280;61996;49.910;35.562;2022-09-04T18:52:43;100002.47;;;19.13;45.75
73692;BME280;61996;49.910;35.562;2022-09-04T18:55:52;100004.28;;;19.13;46.03
73692;BME280;61996;49.910;35.562;2022-09-04T18:58:59;100007.28;;;19.20;45.88
73692;BME280;61996;49.910;35.562;2022-09-04T19:02:05;100002.66;;;19.01;45.97